Time;durP1;ratioP1;P1;durP2;ratioP2;P2;SDS_P1;SDS_P2;PMS_P1;PMS_P2;Temp;Humidity;BMP_temperature;BMP_pressure;BME280_temperature;BME280_humidity;BME280_pressure;Samples;Min_cycle;Max_cycle;Signal;HPM_P1;HPM_P2
2023/06/06 00:02:19;;;;;;;9.02;5.30;;;12.10;99.90;;;;;;5011930;28;20033;-68
2023/06/06 00:04:47;;;;;;;10.85;5.60;;;12.10;99.90;;;;;;5012270;28;20125;-68
2023/06/06 00:07:14;;;;;;;7.10;5.28;;;12.20;99.90;;;;;;5012151;28;20070;-68
2023/06/06 00:09:39;;;;;;;7.40;4.80;;;12.20;99.90;;;;;;5012102;28;20056;-68
2023/06/06 00:12:12;;;;;;;7.32;4.47;;;12.10;99.90;;;;;;5011790;28;20037;-68
2023/06/06 00:14:39;;;;;;;7.80;3.92;;;12.10;99.90;;;;;;5012084;28;20045;-68
2023/06/06 00:17:06;;;;;;;8.82;5.30;;;12.10;99.90;;;;;;5011893;28;20518;-68
2023/06/06 00:19:32;;;;;;;6.57;4.28;;;12.10;99.90;;;;;;5011934;28;20077;-68
2023/06/06 00:21:58;;;;;;;8.23;5.07;;;12.10;99.90;;;;;;5011408;28;20069;-68
2023/06/06 00:24:24;;;;;;;9.32;5.25;;;12.00;99.90;;;;;;5011962;28;20100;-68
2023/06/06 00:26:50;;;;;;;8.80;4.47;;;12.00;99.90;;;;;;5011919;28;20607;-68
2023/06/06 00:29:16;;;;;;;11.18;4.57;;;12.00;99.90;;;;;;5011948;28;20046;-68
2023/06/06 00:31:41;;;;;;;7.63;4.35;;;12.00;99.90;;;;;;5011884;28;20125;-68
2023/06/06 00:34:07;;;;;;;8.30;4.60;;;12.00;99.90;;;;;;5011712;28;20096;-68
2023/06/06 00:36:32;;;;;;;8.43;4.80;;;12.00;99.90;;;;;;5011790;28;20501;-68
2023/06/06 00:38:58;;;;;;;6.47;4.10;;;12.00;99.90;;;;;;5011606;28;20090;-68
2023/06/06 00:41:23;;;;;;;11.02;5.53;;;12.00;99.90;;;;;;5011602;28;20080;-68
2023/06/06 00:43:49;;;;;;;9.57;5.38;;;11.90;99.90;;;;;;5010737;28;20054;-68
2023/06/06 00:46:16;;;;;;;9.98;4.80;;;11.90;99.90;;;;;;5011831;28;20073;-68
2023/06/06 00:48:42;;;;;;;9.60;5.05;;;11.90;99.90;;;;;;5011688;28;20124;-68
2023/06/06 00:51:09;;;;;;;8.38;4.50;;;11.90;99.90;;;;;;5011563;28;20509;-68
2023/06/06 00:53:36;;;;;;;10.48;5.15;;;11.90;99.90;;;;;;5011583;28;20046;-68
2023/06/06 00:56:02;;;;;;;9.85;4.50;;;11.90;99.90;;;;;;5011605;28;20087;-68
2023/06/06 00:58:30;;;;;;;10.30;4.40;;;11.80;99.90;;;;;;5011692;28;20060;-68
2023/06/06 01:00:56;;;;;;;9.52;4.85;;;11.90;99.90;;;;;;5010436;28;20046;-68
2023/06/06 01:03:24;;;;;;;7.43;4.38;;;11.80;99.90;;;;;;5011498;28;20045;-68
2023/06/06 01:05:53;;;;;;;10.30;5.03;;;11.80;99.90;;;;;;5011503;28;20426;-68
2023/06/06 01:08:20;;;;;;;9.25;5.43;;;11.90;99.90;;;;;;5011041;28;20504;-68
2023/06/06 01:10:46;;;;;;;6.95;4.75;;;11.80;99.90;;;;;;5011499;28;20045;-68
2023/06/06 01:13:23;;;;;;;8.43;4.88;;;11.80;99.90;;;;;;5011422;28;20038;-68
2023/06/06 01:15:59;;;;;;;11.45;5.65;;;11.80;99.90;;;;;;5011634;28;20078;-68
2023/06/06 01:18:25;;;;;;;10.30;4.45;;;11.80;99.90;;;;;;5011378;28;20038;-68
2023/06/06 01:20:51;;;;;;;10.10;4.55;;;11.70;99.90;;;;;;5011078;28;20038;-68
2023/06/06 01:23:18;;;;;;;10.35;4.95;;;11.80;99.90;;;;;;5011757;28;20041;-67
2023/06/06 01:25:47;;;;;;;9.75;4.55;;;11.70;99.90;;;;;;5011290;28;20045;-68
2023/06/06 01:28:15;;;;;;;7.28;4.70;;;11.70;99.90;;;;;;5011160;28;20052;-68
2023/06/06 01:30:42;;;;;;;9.32;5.28;;;11.70;99.90;;;;;;5011097;28;20046;-68
2023/06/06 01:33:17;;;;;;;11.10;5.22;;;11.60;99.90;;;;;;5011294;28;20410;-68
2023/06/06 01:36:08;;;;;;;7.32;4.88;;;11.70;99.90;;;;;;5014760;28;20046;-68
2023/06/06 01:39:01;;;;;;;8.05;5.47;;;11.60;99.90;;;;;;5013595;28;20046;-68
2023/06/06 01:41:29;;;;;;;8.70;5.22;;;11.50;99.90;;;;;;5013614;28;20052;-68
2023/06/06 01:43:57;;;;;;;9.55;4.80;;;11.60;99.90;;;;;;5013454;28;20042;-68
2023/06/06 01:46:25;;;;;;;11.98;5.35;;;11.50;99.90;;;;;;5014650;28;20046;-68
2023/06/06 01:48:52;;;;;;;10.43;6.20;;;11.60;99.90;;;;;;5014559;28;20510;-68
2023/06/06 01:51:18;;;;;;;13.15;5.65;;;11.50;99.90;;;;;;5014493;28;20048;-68
2023/06/06 01:53:44;;;;;;;9.13;5.25;;;11.50;99.90;;;;;;5014363;28;20038;-68
2023/06/06 01:56:13;;;;;;;13.68;5.68;;;11.50;99.90;;;;;;5014222;28;20045;-68
2023/06/06 01:58:40;;;;;;;9.20;5.22;;;11.60;99.90;;;;;;5013357;28;20042;-69
2023/06/06 02:01:06;;;;;;;10.80;5.95;;;11.50;99.90;;;;;;5014292;28;20406;-68
2023/06/06 02:03:32;;;;;;;10.68;6.15;;;11.50;99.90;;;;;;5014382;28;20045;-68
2023/06/06 02:05:58;;;;;;;10.52;6.50;;;11.40;99.90;;;;;;5014293;28;20072;-68
2023/06/06 02:08:23;;;;;;;15.30;6.43;;;11.30;99.90;;;;;;5014068;28;20084;-68
2023/06/06 02:10:49;;;;;;;8.93;5.70;;;11.30;99.90;;;;;;5014042;28;20157;-68
2023/06/06 02:13:16;;;;;;;13.02;7.00;;;11.40;99.90;;;;;;5014305;28;20030;-67
2023/06/06 02:15:41;;;;;;;12.05;8.05;;;11.40;99.90;;;;;;5014162;28;20038;-68
2023/06/06 02:18:07;;;;;;;14.40;6.57;;;11.40;99.90;;;;;;5012710;28;20041;-68
2023/06/06 02:20:32;;;;;;;14.38;7.43;;;11.40;99.90;;;;;;5013390;28;20042;-68
2023/06/06 02:22:58;;;;;;;12.23;6.53;;;11.40;99.90;;;;;;5014030;28;20044;-67
2023/06/06 02:25:24;;;;;;;10.48;7.40;;;11.40;99.90;;;;;;5013874;28;20161;-68
2023/06/06 02:27:50;;;;;;;11.00;7.10;;;11.30;99.90;;;;;;5013989;28;20037;-68
2023/06/06 02:30:16;;;;;;;11.55;7.10;;;11.30;99.90;;;;;;5013541;28;20145;-68
2023/06/06 02:32:41;;;;;;;14.07;7.53;;;11.20;99.90;;;;;;5013936;28;20077;-67
2023/06/06 02:35:07;;;;;;;12.95;7.32;;;11.30;99.90;;;;;;5013694;28;20672;-68
2023/06/06 02:37:33;;;;;;;14.43;6.78;;;11.20;99.90;;;;;;5013688;28;20066;-68
2023/06/06 02:40:08;;;;;;;11.43;6.70;;;11.10;99.90;;;;;;5013386;28;20132;-68
2023/06/06 02:42:38;;;;;;;12.15;7.00;;;11.20;99.90;;;;;;5013606;28;20100;-68
2023/06/06 02:45:05;;;;;;;10.73;6.88;;;11.20;99.90;;;;;;5013697;28;20052;-68
2023/06/06 02:47:31;;;;;;;13.45;6.53;;;11.20;99.90;;;;;;5013460;28;20041;-68
2023/06/06 02:49:56;;;;;;;14.85;6.90;;;11.20;99.90;;;;;;5013246;28;20041;-68
2023/06/06 02:52:23;;;;;;;13.68;6.57;;;11.20;99.90;;;;;;5013401;28;20085;-68
2023/06/06 02:54:48;;;;;;;10.82;6.03;;;11.20;99.90;;;;;;5013211;28;20387;-68
2023/06/06 02:57:14;;;;;;;16.17;7.68;;;11.20;99.90;;;;;;5013416;28;20040;-68
2023/06/06 02:59:40;;;;;;;11.38;6.28;;;11.20;99.90;;;;;;5013128;28;20441;-68
2023/06/06 03:02:07;;;;;;;12.25;7.20;;;11.20;99.90;;;;;;5011717;28;20038;-68
2023/06/06 03:04:33;;;;;;;8.88;6.10;;;11.20;99.90;;;;;;5013164;28;20045;-68
2023/06/06 03:06:59;;;;;;;12.35;6.65;;;11.10;99.90;;;;;;5012899;28;20069;-69
2023/06/06 03:09:26;;;;;;;10.32;6.95;;;11.10;99.90;;;;;;5013221;28;20099;-68
2023/06/06 03:11:52;;;;;;;13.48;6.90;;;11.10;99.90;;;;;;5013167;28;20061;-68
2023/06/06 03:14:49;;;;;;;;;;;;;;;;;;;;;
2023/06/06 03:17:22;;;;;;;12.60;6.30;;;11.00;99.90;;;;;;5011794;28;20501;-68
2023/06/06 03:19:50;;;;;;;11.18;7.00;;;11.10;99.90;;;;;;5013002;28;20038;-68
2023/06/06 03:22:24;;;;;;;15.32;7.47;;;10.90;99.90;;;;;;5010942;28;20116;-68
2023/06/06 03:24:50;;;;;;;13.07;7.22;;;10.90;99.90;;;;;;5011686;28;20134;-68
2023/06/06 03:27:16;;;;;;;11.25;6.75;;;10.90;99.90;;;;;;5011915;28;20049;-68
2023/06/06 03:29:41;;;;;;;13.40;6.93;;;10.90;99.90;;;;;;5012438;28;20041;-69
2023/06/06 03:32:07;;;;;;;16.15;6.55;;;10.90;99.90;;;;;;5012568;28;20469;-68
2023/06/06 03:34:33;;;;;;;11.13;6.45;;;10.90;99.90;;;;;;5012775;28;20038;-68
2023/06/06 03:36:58;;;;;;;11.75;6.30;;;10.90;99.90;;;;;;5012790;28;20061;-68
2023/06/06 03:39:25;;;;;;;14.00;6.25;;;10.80;99.90;;;;;;5012540;28;20045;-68
2023/06/06 03:41:51;;;;;;;11.18;6.85;;;10.80;99.90;;;;;;5012507;28;20126;-69
2023/06/06 03:44:16;;;;;;;13.63;6.53;;;10.80;99.90;;;;;;5012540;28;20053;-68
2023/06/06 03:46:42;;;;;;;14.07;8.70;;;10.80;99.90;;;;;;5012163;28;20442;-68
2023/06/06 03:49:08;;;;;;;17.70;6.43;;;10.80;99.90;;;;;;5012469;28;20092;-68
2023/06/06 03:51:33;;;;;;;12.07;7.47;;;10.80;99.90;;;;;;5012400;28;20034;-68
2023/06/06 03:53:59;;;;;;;11.13;6.35;;;10.80;99.90;;;;;;5012377;28;20081;-68
2023/06/06 03:56:25;;;;;;;13.05;7.32;;;10.80;99.90;;;;;;5011893;28;20030;-68
2023/06/06 03:58:50;;;;;;;12.10;6.65;;;10.80;99.90;;;;;;5012133;28;20117;-68
2023/06/06 04:01:16;;;;;;;10.38;6.63;;;10.90;99.90;;;;;;5012060;28;20065;-69
2023/06/06 04:03:42;;;;;;;14.88;6.95;;;10.90;99.90;;;;;;5012231;28;20519;-68
2023/06/06 04:06:08;;;;;;;12.25;6.25;;;10.90;99.90;;;;;;5012167;28;20041;-68
2023/06/06 04:08:33;;;;;;;10.63;6.60;;;11.00;99.90;;;;;;5011896;28;20413;-69
2023/06/06 04:10:59;;;;;;;12.15;6.88;;;11.00;99.90;;;;;;5011803;28;20034;-69
2023/06/06 04:13:25;;;;;;;12.60;6.63;;;11.00;99.90;;;;;;5012022;28;20075;-68
2023/06/06 04:15:50;;;;;;;13.52;6.55;;;11.00;99.90;;;;;;5011737;28;20088;-68
2023/06/06 04:18:16;;;;;;;14.50;6.80;;;11.00;99.90;;;;;;5011912;28;20040;-68
2023/06/06 04:20:44;;;;;;;10.63;6.40;;;11.10;99.90;;;;;;5011920;28;20053;-68
2023/06/06 04:23:10;;;;;;;15.95;6.40;;;11.10;99.90;;;;;;5012059;28;20042;-68
2023/06/06 04:25:35;;;;;;;13.02;6.07;;;11.10;99.90;;;;;;5012036;28;20506;-68
2023/06/06 04:28:01;;;;;;;14.90;6.85;;;11.20;99.90;;;;;;5011911;28;20052;-69
2023/06/06 04:30:29;;;;;;;14.18;6.57;;;11.20;99.90;;;;;;5011416;28;20042;-68
2023/06/06 04:32:55;;;;;;;15.65;6.53;;;11.20;99.90;;;;;;5012021;28;20053;-68
2023/06/06 04:35:20;;;;;;;14.95;6.80;;;11.30;99.90;;;;;;5011860;28;20057;-68
2023/06/06 04:37:53;;;;;;;13.27;6.22;;;11.30;99.90;;;;;;5011734;28;20405;-68
2023/06/06 04:40:21;;;;;;;9.88;5.55;;;11.40;99.90;;;;;;5011748;28;20081;-68
2023/06/06 04:42:47;;;;;;;12.70;7.43;;;11.50;99.90;;;;;;5010555;28;20034;-68
2023/06/06 04:45:15;;;;;;;13.50;6.88;;;11.60;99.90;;;;;;5011634;28;20065;-69
2023/06/06 04:47:44;;;;;;;13.93;6.50;;;11.70;99.90;;;;;;5011800;28;20058;-69
2023/06/06 04:50:10;;;;;;;12.60;6.00;;;11.90;99.90;;;;;;5011646;28;20452;-68
2023/06/06 04:52:35;;;;;;;14.48;6.22;;;12.00;99.90;;;;;;5011801;28;20034;-69
2023/06/06 04:55:03;;;;;;;12.70;6.50;;;12.20;99.90;;;;;;5011532;28;20042;-68
2023/06/06 04:57:29;;;;;;;19.08;6.85;;;12.40;99.90;;;;;;5011492;28;20041;-69
2023/06/06 04:59:56;;;;;;;16.88;6.15;;;12.60;99.90;;;;;;5011350;28;20442;-68
2023/06/06 05:02:28;;;;;;;11.43;6.40;;;12.80;99.90;;;;;;5011722;28;20088;-69
2023/06/06 05:04:56;;;;;;;12.85;5.60;;;13.10;99.90;;;;;;5011663;28;20038;-69
2023/06/06 05:07:24;;;;;;;9.85;5.60;;;13.30;99.90;;;;;;5011535;28;20034;-69
2023/06/06 05:09:54;;;;;;;12.70;5.45;;;13.60;99.90;;;;;;5012274;28;20060;-69
2023/06/06 05:12:20;;;;;;;13.23;6.00;;;13.90;99.90;;;;;;5014081;28;20046;-69
2023/06/06 05:14:46;;;;;;;15.88;6.00;;;13.90;99.90;;;;;;5015344;28;20042;-69
2023/06/06 05:17:20;;;;;;;11.80;5.72;;;13.80;99.90;;;;;;5015243;28;20060;-68
2023/06/06 05:19:46;;;;;;;15.15;6.63;;;14.10;99.90;;;;;;5015203;28;20034;-68
2023/06/06 05:22:15;;;;;;;8.90;5.72;;;14.00;99.90;;;;;;5037203;23;20046;-67
2023/06/06 05:24:42;;;;;;;12.52;4.88;;;14.30;99.90;;;;;;5015083;28;20094;-66
2023/06/06 05:27:08;;;;;;;12.18;5.60;;;14.50;99.90;;;;;;5014797;28;20522;-67
2023/06/06 05:29:36;;;;;;;12.93;5.10;;;14.80;99.90;;;;;;5014468;28;20132;-67
2023/06/06 05:32:02;;;;;;;12.73;5.63;;;15.10;99.90;;;;;;5013644;28;20037;-67
2023/06/06 05:34:27;;;;;;;13.05;5.50;;;15.20;99.90;;;;;;5014861;28;20065;-67
2023/06/06 05:36:53;;;;;;;10.95;5.15;;;15.20;99.90;;;;;;5014780;28;20380;-67
2023/06/06 05:39:19;;;;;;;11.48;4.80;;;15.40;99.90;;;;;;5014681;28;20140;-66
2023/06/06 05:41:47;;;;;;;12.15;5.35;;;15.60;99.90;;;;;;5014581;28;20044;-67
2023/06/06 05:44:12;;;;;;;8.77;4.47;;;15.60;99.90;;;;;;5014657;28;20046;-67
2023/06/06 05:46:39;;;;;;;10.68;6.13;;;15.80;99.90;;;;;;5014589;28;20042;-67
2023/06/06 05:49:05;;;;;;;10.93;4.43;;;15.80;99.90;;;;;;5014428;28;20494;-67
2023/06/06 05:51:30;;;;;;;13.68;5.07;;;16.00;99.90;;;;;;5014546;28;20042;-67
2023/06/06 05:53:56;;;;;;;11.98;4.88;;;15.90;99.90;;;;;;5014349;28;20040;-66
2023/06/06 05:56:21;;;;;;;13.80;4.57;;;16.10;99.90;;;;;;5014610;28;20081;-66
2023/06/06 05:58:47;;;;;;;8.88;4.28;;;16.20;99.90;;;;;;5014489;28;20070;-67
2023/06/06 06:01:13;;;;;;;7.45;3.78;;;15.90;99.90;;;;;;5014497;28;20043;-67
2023/06/06 06:03:42;;;;;;;6.60;3.65;;;15.90;99.90;;;;;;5014485;28;20490;-67
2023/06/06 06:06:08;;;;;;;11.35;4.20;;;15.90;99.90;;;;;;5014303;28;20046;-67
2023/06/06 06:08:34;;;;;;;12.18;3.78;;;15.90;99.90;;;;;;5014110;28;20053;-66
2023/06/06 06:11:00;;;;;;;8.68;3.88;;;16.10;99.90;;;;;;5014119;28;20056;-66
2023/06/06 06:13:26;;;;;;;11.00;4.05;;;16.30;99.90;;;;;;5014113;28;20029;-67
2023/06/06 06:15:51;;;;;;;8.10;3.83;;;16.40;99.90;;;;;;5014071;28;20041;-67
2023/06/06 06:18:17;;;;;;;7.00;3.63;;;16.60;99.90;;;;;;5014079;28;20045;-67
2023/06/06 06:20:43;;;;;;;9.75;4.05;;;17.00;99.90;;;;;;5013433;28;20042;-67
2023/06/06 06:23:08;;;;;;;7.15;3.95;;;17.20;99.90;;;;;;5013034;28;20599;-67
2023/06/06 06:25:35;;;;;;;5.10;3.65;;;17.40;99.90;;;;;;5013893;28;20045;-67
2023/06/06 06:28:02;;;;;;;8.07;3.70;;;17.50;99.90;;;;;;5013870;28;20096;-68
2023/06/06 06:30:27;;;;;;;13.70;4.18;;;17.60;99.90;;;;;;5013813;28;20056;-65
2023/06/06 06:32:53;;;;;;;8.48;3.60;;;17.90;99.90;;;;;;5013796;28;20129;-66
2023/06/06 06:35:18;;;;;;;10.38;3.90;;;17.80;99.90;;;;;;5013750;28;20044;-66
2023/06/06 06:37:45;;;;;;;8.63;3.70;;;18.00;99.90;;;;;;5013641;28;20042;-66
2023/06/06 06:40:10;;;;;;;5.63;3.50;;;18.30;99.90;;;;;;5012723;28;20069;-66
2023/06/06 06:42:41;;;;;;;7.60;3.05;;;17.90;99.90;;;;;;5005137;28;20092;-66
2023/06/06 06:45:08;;;;;;;7.15;3.20;;;17.90;99.90;;;;;;5013557;28;20042;-66
2023/06/06 06:47:35;;;;;;;8.80;3.70;;;17.50;99.90;;;;;;5013300;28;20042;-66
2023/06/06 06:50:02;;;;;;;12.20;4.10;;;17.60;99.90;;;;;;5013196;28;20470;-66
2023/06/06 06:52:27;;;;;;;6.45;3.28;;;17.50;99.90;;;;;;5005007;28;20057;-66
2023/06/06 06:54:57;;;;;;;7.78;3.63;;;17.70;99.90;;;;;;5013087;28;20042;-66
2023/06/06 06:57:26;;;;;;;7.43;3.63;;;17.80;99.90;;;;;;5011749;28;20522;-66
2023/06/06 06:59:52;;;;;;;8.95;3.63;;;17.60;99.90;;;;;;5013239;28;20109;-66
2023/06/06 07:02:19;;;;;;;9.88;4.05;;;18.20;99.90;;;;;;5013216;28;20395;-66
2023/06/06 07:04:47;;;;;;;8.23;3.85;;;18.00;99.90;;;;;;5013127;28;20429;-66
2023/06/06 07:07:16;;;;;;;9.68;3.65;;;18.00;99.90;;;;;;5012980;28;20041;-66
2023/06/06 07:09:43;;;;;;;9.50;3.58;;;18.20;99.90;;;;;;5013094;28;20458;-65
2023/06/06 07:12:13;;;;;;;11.98;4.18;;;18.40;99.90;;;;;;5012698;28;20048;-68
2023/06/06 07:14:39;;;;;;;9.20;3.83;;;18.60;99.90;;;;;;5012931;28;20056;-67
2023/06/06 07:17:07;;;;;;;6.05;3.65;;;18.60;99.90;;;;;;5012849;28;20045;-68
2023/06/06 07:19:33;;;;;;;7.10;3.05;;;18.40;99.90;;;;;;5012163;28;20034;-68
2023/06/06 07:21:58;;;;;;;7.28;3.38;;;18.50;99.90;;;;;;5011444;28;20527;-68
2023/06/06 07:24:25;;;;;;;7.38;3.30;;;18.70;99.90;;;;;;5012902;28;20133;-68
2023/06/06 07:26:51;;;;;;;6.32;2.88;;;18.70;99.90;;;;;;5012617;28;20128;-68
2023/06/06 07:29:17;;;;;;;8.82;4.20;;;18.80;99.90;;;;;;5012606;28;20042;-68
2023/06/06 07:31:43;;;;;;;10.32;4.53;;;18.60;99.90;;;;;;5012049;28;20038;-67
2023/06/06 07:34:09;;;;;;;9.48;4.22;;;18.70;99.80;;;;;;5012523;28;20375;-68
2023/06/06 07:36:36;;;;;;;12.27;3.92;;;19.00;99.90;;;;;;5012706;28;20034;-67
2023/06/06 07:39:02;;;;;;;8.15;3.92;;;18.80;99.90;;;;;;5012662;28;20104;-68
2023/06/06 07:41:30;;;;;;;7.18;4.07;;;18.90;99.30;;;;;;5012431;28;20498;-68
2023/06/06 07:43:56;;;;;;;7.13;3.92;;;19.00;98.70;;;;;;5012612;28;20462;-68
2023/06/06 07:46:22;;;;;;;9.07;4.13;;;18.90;98.80;;;;;;5012453;28;20046;-68
2023/06/06 07:48:48;;;;;;;6.57;3.55;;;18.70;98.00;;;;;;5012279;28;20071;-68
2023/06/06 07:51:14;;;;;;;7.93;4.25;;;18.80;98.30;;;;;;5012503;28;20053;-68
2023/06/06 07:53:39;;;;;;;7.97;3.40;;;18.80;97.90;;;;;;5012660;28;20033;-68
2023/06/06 07:56:06;;;;;;;4.97;3.60;;;18.70;98.40;;;;;;5012247;28;20124;-68
2023/06/06 07:58:52;;;;;;;5.75;3.13;;;18.30;99.10;;;;;;5012677;28;20143;-68
2023/06/06 08:01:21;;;;;;;8.50;3.38;;;18.90;99.50;;;;;;5012625;28;20053;-68
2023/06/06 08:03:50;;;;;;;7.78;3.45;;;18.80;99.10;;;;;;5012434;28;20037;-68
2023/06/06 08:06:20;;;;;;;10.27;3.72;;;18.90;99.30;;;;;;5012395;28;20497;-68
2023/06/06 08:08:48;;;;;;;10.52;3.70;;;19.00;99.00;;;;;;5012204;28;20034;-68
2023/06/06 08:11:14;;;;;;;7.43;3.60;;;19.40;98.60;;;;;;5012205;28;20042;-68
2023/06/06 08:13:39;;;;;;;11.82;3.75;;;19.70;97.10;;;;;;5012053;28;20037;-67
2023/06/06 08:16:05;;;;;;;9.55;3.83;;;19.60;96.40;;;;;;5012105;28;20127;-68
2023/06/06 08:18:31;;;;;;;8.90;4.20;;;19.70;96.50;;;;;;5010645;28;20490;-68
2023/06/06 08:20:56;;;;;;;9.85;4.28;;;19.70;96.80;;;;;;5011941;28;20064;-68
2023/06/06 08:23:23;;;;;;;6.60;3.47;;;19.50;97.40;;;;;;5011991;28;20040;-67
2023/06/06 08:25:49;;;;;;;7.68;4.95;;;19.70;96.70;;;;;;5011958;28;20053;-68
2023/06/06 08:28:15;;;;;;;11.30;4.38;;;19.80;95.70;;;;;;5011787;28;20038;-68
2023/06/06 08:30:40;;;;;;;9.68;4.13;;;20.00;96.00;;;;;;5012046;28;20046;-68
2023/06/06 08:33:06;;;;;;;10.10;4.40;;;19.50;96.40;;;;;;5012052;28;20092;-68
2023/06/06 08:35:31;;;;;;;9.85;4.22;;;19.80;96.10;;;;;;5011900;28;20085;-68
2023/06/06 08:37:57;;;;;;;8.70;4.03;;;19.70;95.20;;;;;;5011768;28;20524;-68
2023/06/06 08:40:23;;;;;;;7.45;4.07;;;19.80;95.60;;;;;;5010764;28;20543;-68
2023/06/06 08:42:52;;;;;;;12.20;5.13;;;19.80;95.80;;;;;;5012174;28;20453;-68
2023/06/06 08:45:21;;;;;;;9.57;4.07;;;19.90;95.00;;;;;;5016070;28;20041;-68
2023/06/06 08:47:48;;;;;;;8.98;4.53;;;19.70;95.00;;;;;;5014665;28;20041;-68
2023/06/06 08:50:15;;;;;;;9.68;3.92;;;19.90;95.10;;;;;;5015793;28;20084;-68
2023/06/06 08:52:44;;;;;;;7.35;4.18;;;20.20;94.60;;;;;;5015660;28;20038;-68
2023/06/06 08:55:10;;;;;;;10.60;4.53;;;20.20;94.70;;;;;;5015570;28;20050;-68
2023/06/06 08:57:41;;;;;;;7.25;4.20;;;20.40;94.40;;;;;;5014279;28;20044;-68
2023/06/06 09:00:11;;;;;;;10.23;4.82;;;20.20;94.50;;;;;;5015678;28;20401;-68
2023/06/06 09:02:41;;;;;;;8.82;4.50;;;20.40;94.70;;;;;;5015635;28;20123;-68
2023/06/06 09:05:11;;;;;;;12.10;5.28;;;20.30;93.40;;;;;;5014561;28;20041;-68
2023/06/06 09:07:38;;;;;;;9.30;4.80;;;20.30;94.00;;;;;;5015308;28;20042;-68
2023/06/06 09:10:05;;;;;;;10.20;5.07;;;20.50;93.40;;;;;;5015100;28;20457;-68
2023/06/06 09:12:42;;;;;;;10.05;5.00;;;20.10;93.20;;;;;;5015180;28;20528;-68
2023/06/06 09:15:08;;;;;;;11.20;5.07;;;20.20;92.40;;;;;;5015298;28;20410;-68
2023/06/06 09:17:38;;;;;;;11.27;5.15;;;20.30;92.70;;;;;;5015239;28;20073;-68
2023/06/06 09:20:10;;;;;;;9.20;4.55;;;20.30;93.10;;;;;;5015048;28;20088;-68
2023/06/06 09:22:40;;;;;;;9.27;5.05;;;20.20;93.10;;;;;;5013682;28;20501;-68
2023/06/06 09:25:15;;;;;;;6.97;4.25;;;20.10;94.10;;;;;;5013908;28;20528;-68
2023/06/06 09:27:41;;;;;;;9.13;5.50;;;19.90;94.50;;;;;;5015146;28;20120;-68
2023/06/06 09:30:21;;;;;;;11.70;5.72;;;19.80;95.20;;;;;;5014967;28;20084;-68
2023/06/06 09:32:58;;;;;;;9.07;4.15;;;19.70;94.70;;;;;;5014881;28;20046;-68
2023/06/06 09:35:29;;;;;;;11.10;4.47;;;19.90;94.60;;;;;;5015136;28;20458;-68
2023/06/06 09:37:56;;;;;;;10.27;4.60;;;20.00;95.40;;;;;;5014896;28;20387;-68
2023/06/06 09:40:22;;;;;;;10.68;5.28;;;20.30;95.40;;;;;;5014791;28;20069;-68
2023/06/06 09:42:49;;;;;;;9.40;4.65;;;20.50;94.70;;;;;;5014776;28;20038;-67
2023/06/06 09:45:19;;;;;;;8.80;5.28;;;20.40;94.40;;;;;;5014659;28;20053;-68
2023/06/06 09:47:48;;;;;;;11.63;5.45;;;20.00;94.70;;;;;;5014881;28;20072;-68
2023/06/06 09:50:16;;;;;;;7.60;5.05;;;20.30;94.30;;;;;;5013485;28;20374;-68
2023/06/06 09:52:42;;;;;;;12.30;5.78;;;19.90;94.90;;;;;;5014518;28;20448;-68
2023/06/06 09:55:12;;;;;;;11.70;5.32;;;19.70;95.00;;;;;;5013678;28;20041;-68
2023/06/06 09:57:40;;;;;;;9.07;4.97;;;19.90;94.10;;;;;;5014472;28;20060;-68
2023/06/06 10:00:14;;;;;;;11.75;5.43;;;19.90;94.10;;;;;;5014307;28;20041;-68
2023/06/06 10:02:46;;;;;;;14.32;5.50;;;20.10;94.20;;;;;;5014570;28;20540;-69
2023/06/06 10:05:15;;;;;;;12.68;5.72;;;20.00;94.30;;;;;;5014489;28;20049;-68
2023/06/06 10:07:45;;;;;;;9.68;5.78;;;19.80;94.40;;;;;;5014211;28;20121;-69
2023/06/06 10:10:14;;;;;;;7.38;4.68;;;20.00;93.90;;;;;;5014021;28;20052;-69
2023/06/06 10:12:41;;;;;;;12.57;6.43;;;20.10;94.70;;;;;;5014104;28;20502;-69
2023/06/06 10:15:10;;;;;;;8.07;5.03;;;19.90;94.30;;;;;;5014232;28;20121;-70
2023/06/06 10:17:37;;;;;;;9.77;5.28;;;19.80;94.50;;;;;;5014176;28;20038;-67
2023/06/06 10:20:07;;;;;;;10.52;5.57;;;19.60;95.30;;;;;;5014054;28;20042;-68
2023/06/06 10:22:36;;;;;;;10.18;6.68;;;19.60;95.30;;;;;;5013849;28;20433;-68
2023/06/06 10:25:12;;;;;;;16.35;6.07;;;19.50;95.10;;;;;;5013831;28;20038;-68
2023/06/06 10:28:08;;;;;;;9.48;5.55;;;19.30;95.70;;;;;;5014105;28;20109;-69
2023/06/06 10:30:43;;;;;;;8.20;6.03;;;19.40;95.80;;;;;;5012907;28;20041;-68
2023/06/06 10:33:26;;;;;;;11.23;5.63;;;19.40;95.80;;;;;;5012587;28;20049;-69
2023/06/06 10:36:02;;;;;;;11.95;5.30;;;19.50;96.40;;;;;;5013680;28;20656;-69
2023/06/06 10:38:28;;;;;;;11.40;6.10;;;19.10;96.50;;;;;;5013754;28;20064;-68
2023/06/06 10:40:55;;;;;;;8.70;5.30;;;18.80;97.30;;;;;;5013729;28;20498;-68
2023/06/06 10:43:42;;;;;;;16.00;6.25;;;19.30;97.30;;;;;;5013836;28;20080;-68
2023/06/06 10:46:08;;;;;;;9.57;5.13;;;19.20;96.40;;;;;;5013489;28;20088;-68
2023/06/06 10:48:41;;;;;;;15.98;5.50;;;19.20;96.30;;;;;;5013525;28;20037;-68
2023/06/06 10:51:07;;;;;;;;;;;18.90;96.90;;;;;;5014053;28;20034;-68
2023/06/06 10:53:33;;;;;;;10.80;5.65;;;18.90;97.00;;;;;;5013516;28;19917;-68
2023/06/06 10:55:59;;;;;;;13.55;6.32;;;19.10;97.20;;;;;;5013317;28;20038;-68
2023/06/06 10:58:31;;;;;;;12.70;5.18;;;19.10;97.40;;;;;;5013255;28;20042;-68
2023/06/06 11:01:02;;;;;;;9.00;4.80;;;19.00;96.90;;;;;;5013623;28;20037;-69
2023/06/06 11:03:39;;;;;;;9.00;5.60;;;19.00;96.90;;;;;;5013400;28;20049;-68
2023/06/06 11:06:11;;;;;;;8.80;4.93;;;19.10;97.20;;;;;;5012425;28;20518;-68
2023/06/06 11:08:53;;;;;;;10.77;6.00;;;19.00;96.40;;;;;;5012744;28;20119;-68
2023/06/06 11:11:23;;;;;;;12.52;5.43;;;19.20;96.20;;;;;;5013338;28;20091;-68
2023/06/06 11:13:59;;;;;;;10.95;4.78;;;19.00;96.70;;;;;;5013462;28;20052;-68
2023/06/06 11:16:40;;;;;;;11.75;5.20;;;19.10;96.80;;;;;;5012995;28;20128;-68
2023/06/06 11:19:09;;;;;;;16.40;5.72;;;19.00;97.00;;;;;;5012717;28;20053;-68
2023/06/06 11:21:36;;;;;;;11.15;6.05;;;18.90;97.30;;;;;;5034965;23;20069;-73
2023/06/06 11:24:03;;;;;;;12.82;5.63;;;19.00;97.20;;;;;;4995369;28;20044;-74
2023/06/06 11:26:28;;;;;;;12.65;6.38;;;18.90;97.30;;;;;;5012726;28;20042;-74
2023/06/06 11:28:58;;;;;;;9.75;4.65;;;18.70;97.40;;;;;;5011437;28;20057;-73
2023/06/06 11:31:26;;;;;;;13.60;5.32;;;18.60;98.20;;;;;;5011532;28;20037;-73
2023/06/06 11:34:02;;;;;;;8.90;5.45;;;18.90;97.80;;;;;;5012903;28;20113;-74
2023/06/06 11:36:28;;;;;;;13.05;6.35;;;18.80;97.50;;;;;;5011373;28;20061;-73
2023/06/06 11:38:57;;;;;;;9.43;5.63;;;19.00;97.70;;;;;;5011537;28;20038;-74
2023/06/06 11:41:24;;;;;;;13.40;5.93;;;19.00;97.80;;;;;;5011294;28;20405;-73
2023/06/06 11:43:50;;;;;;;10.45;5.80;;;18.70;97.80;;;;;;5011326;28;20042;-74
2023/06/06 11:46:17;;;;;;;10.50;5.15;;;18.90;97.60;;;;;;5011125;28;20517;-74
2023/06/06 11:48:43;;;;;;;8.52;4.53;;;18.90;97.30;;;;;;5012545;28;20053;-74
2023/06/06 11:51:18;;;;;;;12.93;5.13;;;18.80;98.00;;;;;;5012159;28;20034;-70
2023/06/06 11:53:43;;;;;;;9.70;5.25;;;18.90;97.50;;;;;;5012345;28;20125;-70
2023/06/06 11:56:16;;;;;;;12.63;5.22;;;18.90;97.40;;;;;;5008844;28;20160;-71
2023/06/06 11:58:42;;;;;;;10.68;6.18;;;19.20;97.00;;;;;;5009245;28;20065;-70
2023/06/06 12:01:11;;;;;;;9.05;5.20;;;19.10;97.30;;;;;;5012223;28;20509;-71
2023/06/06 12:03:40;;;;;;;10.98;5.25;;;19.40;96.90;;;;;;5010712;28;20049;-71
2023/06/06 12:06:07;;;;;;;12.10;5.65;;;19.40;96.70;;;;;;5012034;28;20088;-70
2023/06/06 12:08:37;;;;;;;10.55;5.88;;;19.20;96.60;;;;;;5011696;28;20071;-69
2023/06/06 12:11:26;;;;;;;13.18;5.65;;;19.30;96.70;;;;;;5011799;28;20048;-69
2023/06/06 12:13:53;;;;;;;12.55;5.07;;;19.30;97.00;;;;;;5011956;28;20117;-68
2023/06/06 12:16:27;;;;;;;11.23;5.50;;;19.10;96.90;;;;;;5003694;28;20046;-69
2023/06/06 12:18:54;;;;;;;9.52;4.20;;;19.10;96.70;;;;;;4991907;28;20034;-69
2023/06/06 12:21:20;;;;;;;12.38;5.90;;;19.10;96.90;;;;;;5001099;28;20041;-69
2023/06/06 12:23:46;;;;;;;8.70;5.72;;;19.00;97.30;;;;;;5011103;28;20160;-70
2023/06/06 12:26:15;;;;;;;9.00;5.68;;;19.30;97.30;;;;;;5011736;28;20390;-71
2023/06/06 12:29:00;;;;;;;12.57;4.40;;;19.30;97.20;;;;;;5012025;28;20325;-70
2023/06/06 12:31:27;;;;;;;9.60;4.82;;;19.30;96.60;;;;;;5010878;28;20117;-71
2023/06/06 12:33:56;;;;;;;9.43;4.78;;;19.30;96.80;;;;;;5011828;28;20662;-71
2023/06/06 12:36:25;;;;;;;12.48;4.88;;;19.30;96.10;;;;;;5012022;28;20061;-71
2023/06/06 12:39:03;;;;;;;11.63;5.38;;;19.40;95.90;;;;;;5011957;28;20041;-71
2023/06/06 12:41:42;;;;;;;9.73;4.95;;;19.30;96.50;;;;;;5012023;28;20046;-71
2023/06/06 12:44:12;;;;;;;11.38;5.30;;;19.20;96.60;;;;;;5011902;28;20042;-71
2023/06/06 12:46:40;;;;;;;9.95;4.95;;;19.10;96.80;;;;;;5011574;28;20046;-71
2023/06/06 12:49:06;;;;;;;13.25;5.32;;;19.10;97.00;;;;;;5011841;28;20038;-71